Morgantown, West Virginia
Current Conditions -  °F | °C
As of 3:33 PM on Thursday 27 Nov 2014 (Local Time) from KMGW Reporting Station
Overcast Overcast  
Wind Chill: 29°   Ceiling: 4300
Heat Index: 35°   Visibility: 9mi
Dew Point: 24°   Wind: 8mph
Humidity: 64%   Direction: 270°W
Pressure: 30.11"   Gusts: NA
Location:  39.63°N, 79.96°W
Report Text: KMGW 272033Z 27007KT 240V300 9SM FEW024 SCT032 OVC043 02/M04 A3011 RMK AO2 T00171044
Loading
Personal Weather Stations






























Interactive Weather Map New forecast layout! Learn more

10-Day Weather Forecast

Advertisements
Track Severe Weather on mobile